Time;durP1;ratioP1;P1;durP2;ratioP2;P2;SDS_P1;SDS_P2;PMS_P1;PMS_P2;Temp;Humidity;BMP_temperature;BMP_pressure;BME280_temperature;BME280_humidity;BME280_pressure;Samples;Min_cycle;Max_cycle;Signal;HPM_P1;HPM_P2
2023/12/08 00:00:03;;;;;;;13.80;10.73;;;4.20;99.90;;;;;;5121693;27;20279;-69
2023/12/08 00:02:28;;;;;;;9.30;8.40;;;4.30;99.90;;;;;;5137033;27;20559;-69
2023/12/08 00:04:54;;;;;;;12.10;10.80;;;4.30;99.90;;;;;;5136931;27;20389;-69
2023/12/08 00:07:20;;;;;;;12.27;10.43;;;4.50;99.90;;;;;;5136894;27;20203;-69
2023/12/08 00:09:45;;;;;;;13.10;11.10;;;4.50;99.90;;;;;;5133678;27;20191;-69
2023/12/08 00:12:11;;;;;;;12.47;11.13;;;4.50;99.90;;;;;;5116328;28;20160;-69
2023/12/08 00:14:36;;;;;;;12.90;11.53;;;4.60;99.90;;;;;;5116198;28;20196;-68
2023/12/08 00:17:02;;;;;;;12.20;10.90;;;4.40;99.90;;;;;;5116214;28;20169;-69
2023/12/08 00:19:27;;;;;;;12.73;11.37;;;4.30;99.90;;;;;;5116927;28;20248;-69
2023/12/08 00:21:53;;;;;;;15.27;12.43;;;4.40;99.90;;;;;;5096972;28;20162;-69
2023/12/08 00:24:19;;;;;;;12.40;10.63;;;4.50;99.90;;;;;;5095952;28;20169;-69
2023/12/08 00:26:46;;;;;;;10.77;9.73;;;4.60;99.90;;;;;;5101209;28;20218;-69
2023/12/08 00:29:11;;;;;;;11.80;10.60;;;4.70;99.90;;;;;;5117129;27;20964;-69
2023/12/08 00:31:37;;;;;;;12.97;11.67;;;4.60;99.90;;;;;;5118181;27;20413;-69
2023/12/08 00:34:02;;;;;;;15.90;10.80;;;4.70;99.90;;;;;;5116060;28;20247;-69
2023/12/08 00:36:28;;;;;;;15.13;10.80;;;4.60;99.90;;;;;;5115813;28;20204;-69
2023/12/08 00:38:54;;;;;;;12.50;10.20;;;4.30;99.90;;;;;;5115990;28;20185;-69
2023/12/08 00:41:19;;;;;;;10.60;9.47;;;4.20;99.90;;;;;;5131256;27;20634;-68
2023/12/08 00:43:45;;;;;;;14.23;11.97;;;4.10;99.90;;;;;;5136828;27;20164;-69
2023/12/08 00:46:10;;;;;;;18.33;12.60;;;4.20;99.90;;;;;;5136271;27;20172;-69
2023/12/08 00:48:36;;;;;;;15.13;12.80;;;4.20;99.90;;;;;;5136431;27;20198;-69
2023/12/08 00:51:01;;;;;;;13.20;11.33;;;4.20;99.90;;;;;;5123167;27;20176;-69
2023/12/08 00:53:27;;;;;;;12.13;10.90;;;4.20;99.90;;;;;;5115747;28;20362;-69
2023/12/08 00:55:53;;;;;;;13.30;11.90;;;4.00;99.90;;;;;;5115414;28;20161;-69
2023/12/08 00:58:19;;;;;;;13.93;11.50;;;4.20;99.90;;;;;;5115724;28;20395;-69
2023/12/08 01:00:45;;;;;;;14.33;11.60;;;4.20;99.90;;;;;;5125637;27;20947;-68
2023/12/08 01:03:11;;;;;;;17.23;11.67;;;4.40;99.90;;;;;;5136412;27;20168;-69
2023/12/08 01:05:37;;;;;;;11.87;10.67;;;4.30;99.90;;;;;;5133661;27;20179;-69
2023/12/08 01:08:02;;;;;;;12.90;11.30;;;4.30;99.90;;;;;;5134364;27;20401;-69
2023/12/08 01:10:28;;;;;;;12.80;11.10;;;4.30;99.90;;;;;;5127851;27;20192;-69
2023/12/08 01:12:53;;;;;;;12.03;10.83;;;4.30;99.90;;;;;;5115181;28;20192;-69
2023/12/08 01:15:19;;;;;;;16.33;10.73;;;4.40;99.90;;;;;;5115897;28;20161;-69
2023/12/08 01:17:44;;;;;;;11.57;10.37;;;4.50;99.90;;;;;;5115651;28;20248;-70
2023/12/08 01:20:10;;;;;;;12.20;10.83;;;4.60;99.90;;;;;;5120066;27;20215;-69
2023/12/08 01:22:36;;;;;;;14.23;11.03;;;4.50;99.90;;;;;;5135414;27;20187;-69
2023/12/08 01:25:02;;;;;;;12.13;10.80;;;4.40;99.90;;;;;;5135450;27;20168;-69
2023/12/08 01:27:27;;;;;;;12.20;10.83;;;4.10;99.90;;;;;;5135344;27;20164;-69
2023/12/08 01:29:53;;;;;;;12.83;10.80;;;4.00;99.90;;;;;;5132683;27;20438;-69
2023/12/08 01:32:18;;;;;;;10.97;9.87;;;4.20;99.90;;;;;;5115002;28;20167;-69
2023/12/08 01:34:44;;;;;;;14.37;11.40;;;4.20;99.90;;;;;;5114895;28;20204;-69
2023/12/08 01:37:09;;;;;;;13.57;11.80;;;4.20;99.90;;;;;;5115112;28;20165;-70
2023/12/08 01:39:35;;;;;;;13.10;11.00;;;4.40;99.90;;;;;;5114825;28;20181;-70
2023/12/08 01:42:02;;;;;;;11.90;10.57;;;4.50;99.90;;;;;;5135629;27;20584;-69
2023/12/08 01:44:27;;;;;;;11.90;10.50;;;4.60;99.90;;;;;;5135668;27;20402;-69
2023/12/08 01:46:53;;;;;;;13.73;11.13;;;4.60;99.90;;;;;;5135569;27;20409;-69
2023/12/08 01:49:19;;;;;;;11.90;10.70;;;4.70;99.90;;;;;;5135554;27;20190;-70
2023/12/08 01:51:45;;;;;;;14.27;11.47;;;4.70;99.90;;;;;;5117526;27;20172;-69
2023/12/08 01:54:12;;;;;;;13.53;11.07;;;4.70;99.90;;;;;;5114680;28;20196;-69
2023/12/08 01:56:38;;;;;;;11.63;10.27;;;4.70;99.90;;;;;;5114819;28;20900;-69
2023/12/08 01:59:04;;;;;;;12.73;11.40;;;4.70;99.90;;;;;;5114495;28;20442;-69
2023/12/08 02:01:30;;;;;;;13.33;10.97;;;4.60;99.90;;;;;;5130500;27;20397;-69
2023/12/08 02:03:56;;;;;;;13.30;11.13;;;4.60;99.90;;;;;;5135679;27;20171;-69
2023/12/08 02:06:22;;;;;;;12.03;10.67;;;4.70;99.90;;;;;;5135248;27;20781;-69
2023/12/08 02:08:47;;;;;;;11.57;10.37;;;4.60;99.90;;;;;;5134934;27;20943;-69
2023/12/08 02:11:14;;;;;;;12.47;10.47;;;4.60;99.90;;;;;;5121376;27;20196;-69
2023/12/08 02:13:41;;;;;;;12.20;10.90;;;4.60;99.90;;;;;;5113848;28;20192;-69
2023/12/08 02:16:29;;;;;;;11.67;10.20;;;4.70;99.90;;;;;;5114135;28;20403;-69
2023/12/08 02:18:56;;;;;;;10.70;9.40;;;4.80;99.90;;;;;;5114014;28;20441;-70
2023/12/08 02:21:22;;;;;;;11.67;10.27;;;4.80;99.90;;;;;;5128114;27;20773;-69
2023/12/08 02:23:48;;;;;;;11.03;9.73;;;4.90;99.90;;;;;;5108859;28;20441;-69
2023/12/08 02:26:14;;;;;;;10.90;9.80;;;4.90;99.90;;;;;;5114091;28;20413;-69
2023/12/08 02:28:40;;;;;;;12.57;10.83;;;4.90;99.90;;;;;;5113996;28;20880;-69
2023/12/08 02:31:10;;;;;;;12.80;11.00;;;4.70;99.90;;;;;;5125832;27;20445;-69
2023/12/08 02:33:37;;;;;;;10.60;8.83;;;4.60;99.90;;;;;;5125879;27;20283;-69
2023/12/08 02:36:05;;;;;;;12.23;10.27;;;4.50;99.90;;;;;;5113842;28;20406;-69
2023/12/08 02:38:32;;;;;;;12.43;10.33;;;4.30;99.90;;;;;;5113522;28;20392;-69
2023/12/08 02:40:58;;;;;;;10.20;9.20;;;4.30;99.90;;;;;;5124336;27;20492;-71
2023/12/08 02:43:24;;;;;;;10.73;9.73;;;4.30;99.90;;;;;;5134305;27;20476;-71
2023/12/08 02:45:49;;;;;;;12.87;10.20;;;4.30;99.90;;;;;;5134294;27;20538;-71
2023/12/08 02:48:15;;;;;;;9.80;8.80;;;4.40;99.90;;;;;;5134526;27;20172;-71
2023/12/08 02:50:42;;;;;;;12.67;9.80;;;4.40;99.90;;;;;;5107559;28;20242;-71
2023/12/08 02:53:07;;;;;;;10.40;9.20;;;4.50;99.90;;;;;;5113359;28;20200;-70
2023/12/08 02:55:33;;;;;;;10.60;9.47;;;4.50;99.90;;;;;;5113385;28;20402;-73
2023/12/08 02:57:58;;;;;;;12.20;10.70;;;4.50;99.90;;;;;;5113409;28;20280;-73
2023/12/08 03:00:24;;;;;;;11.37;10.27;;;4.40;99.90;;;;;;5118647;28;20203;-72
2023/12/08 03:02:49;;;;;;;11.03;9.70;;;4.30;99.90;;;;;;5130536;28;20195;-72
2023/12/08 03:05:15;;;;;;;9.80;8.40;;;4.30;99.90;;;;;;5133825;28;20581;-72
2023/12/08 03:07:40;;;;;;;10.67;9.60;;;4.30;99.90;;;;;;5133818;28;20186;-73
2023/12/08 03:10:06;;;;;;;8.53;7.63;;;4.50;99.90;;;;;;5130853;27;20220;-72
2023/12/08 03:12:32;;;;;;;9.40;8.20;;;4.50;99.90;;;;;;5113159;28;20161;-72
2023/12/08 03:14:58;;;;;;;10.80;8.47;;;4.50;99.90;;;;;;5113147;28;20402;-73
2023/12/08 03:17:23;;;;;;;12.10;8.60;;;4.60;99.90;;;;;;5113210;28;20782;-72
2023/12/08 03:19:49;;;;;;;10.70;8.37;;;4.60;99.90;;;;;;5113263;28;20195;-72
2023/12/08 03:22:14;;;;;;;10.53;9.43;;;4.40;99.90;;;;;;5115256;28;20167;-73
2023/12/08 03:24:40;;;;;;;10.03;9.00;;;4.30;99.90;;;;;;5133665;28;20172;-73
2023/12/08 03:27:06;;;;;;;11.37;8.73;;;4.30;99.90;;;;;;5115550;28;20164;-72
2023/12/08 03:29:31;;;;;;;11.27;8.50;;;4.30;99.90;;;;;;5134778;27;20183;-72
2023/12/08 03:31:57;;;;;;;8.20;7.23;;;4.30;99.90;;;;;;5119708;27;20173;-73
2023/12/08 03:34:22;;;;;;;8.20;7.33;;;4.20;99.90;;;;;;5117244;28;20304;-71
2023/12/08 03:36:48;;;;;;;8.20;7.23;;;4.20;99.90;;;;;;5116992;28;20169;-72
2023/12/08 03:39:13;;;;;;;8.57;7.77;;;4.10;99.90;;;;;;5116882;28;20187;-69
2023/12/08 03:41:39;;;;;;;8.20;6.93;;;4.20;99.90;;;;;;5132326;27;20192;-71
2023/12/08 03:44:04;;;;;;;9.00;8.10;;;4.40;99.90;;;;;;5137811;27;20188;-70
2023/12/08 03:46:30;;;;;;;9.87;8.20;;;4.40;99.90;;;;;;5137916;27;20198;-70
2023/12/08 03:48:55;;;;;;;9.23;7.77;;;4.60;99.90;;;;;;5137379;27;20219;-73
2023/12/08 03:51:21;;;;;;;12.23;8.97;;;4.50;99.90;;;;;;5124500;27;20638;-73
2023/12/08 03:53:46;;;;;;;8.53;7.60;;;4.50;99.90;;;;;;5117138;28;20192;-73
2023/12/08 03:56:12;;;;;;;8.70;7.80;;;4.30;99.90;;;;;;5117140;28;20218;-73
2023/12/08 03:58:37;;;;;;;8.57;7.67;;;4.30;99.90;;;;;;5116710;28;20180;-73
2023/12/08 04:01:03;;;;;;;8.03;7.20;;;4.40;99.90;;;;;;5098884;28;20183;-71
2023/12/08 04:03:29;;;;;;;9.70;7.97;;;4.30;99.90;;;;;;5117030;28;20179;-69
2023/12/08 04:05:54;;;;;;;8.47;7.50;;;4.30;99.90;;;;;;5117061;28;20405;-71
2023/12/08 04:08:20;;;;;;;8.17;7.27;;;4.20;99.90;;;;;;5116631;28;20200;-70
2023/12/08 04:10:46;;;;;;;8.20;7.40;;;4.20;99.90;;;;;;5130690;27;20180;-71
2023/12/08 04:13:12;;;;;;;7.87;7.00;;;4.30;99.90;;;;;;5137107;27;20195;-71
2023/12/08 04:15:38;;;;;;;8.17;7.27;;;4.30;99.90;;;;;;5136928;27;20891;-71
2023/12/08 04:18:04;;;;;;;7.03;6.33;;;4.30;99.90;;;;;;5136866;27;20243;-71
2023/12/08 04:20:31;;;;;;;8.50;6.93;;;4.20;99.90;;;;;;5129436;27;20428;-71
2023/12/08 04:22:56;;;;;;;7.70;6.90;;;4.20;99.90;;;;;;5136727;27;20417;-71
2023/12/08 04:25:22;;;;;;;7.73;6.93;;;4.50;99.90;;;;;;5136943;27;20466;-71
2023/12/08 04:27:47;;;;;;;8.23;7.37;;;4.60;99.90;;;;;;5136615;27;20172;-70
2023/12/08 04:30:13;;;;;;;9.60;8.60;;;4.50;99.90;;;;;;5127077;27;20196;-71
2023/12/08 04:32:38;;;;;;;10.10;8.80;;;4.30;99.90;;;;;;5115927;28;20168;-71
2023/12/08 04:35:04;;;;;;;9.67;8.67;;;4.30;99.90;;;;;;5116012;28;20516;-71
2023/12/08 04:37:30;;;;;;;9.60;8.70;;;4.30;99.90;;;;;;5115387;28;20175;-70
2023/12/08 04:39:55;;;;;;;9.67;8.70;;;4.40;99.90;;;;;;5122544;27;20845;-70
2023/12/08 04:42:21;;;;;;;8.80;7.90;;;4.50;99.90;;;;;;5136649;27;20214;-70
2023/12/08 04:44:46;;;;;;;8.50;7.60;;;4.50;99.90;;;;;;5136402;27;20175;-71
2023/12/08 04:47:12;;;;;;;12.80;7.90;;;4.60;99.90;;;;;;5136182;27;20701;-71
2023/12/08 04:49:37;;;;;;;10.00;7.70;;;4.60;99.90;;;;;;5131932;27;20204;-70
2023/12/08 04:52:03;;;;;;;9.20;8.20;;;4.80;99.90;;;;;;5115484;28;20763;-70
2023/12/08 04:54:29;;;;;;;7.70;7.00;;;4.80;99.90;;;;;;5116001;28;20545;-71
2023/12/08 04:56:55;;;;;;;10.00;9.00;;;4.90;99.90;;;;;;5097212;28;20172;-71
2023/12/08 04:59:20;;;;;;;9.70;8.80;;;4.90;99.90;;;;;;5100839;27;20295;-71
2023/12/08 05:01:50;;;;;;;9.80;8.30;;;4.70;99.90;;;;;;5135922;27;20571;-71
2023/12/08 05:04:17;;;;;;;7.80;7.10;;;4.70;99.90;;;;;;5135836;27;20634;-71
2023/12/08 05:06:43;;;;;;;9.93;8.87;;;4.80;99.90;;;;;;5136086;27;20435;-71
2023/12/08 05:09:10;;;;;;;9.73;8.63;;;4.80;99.90;;;;;;5135675;27;20773;-71
2023/12/08 05:11:36;;;;;;;8.80;7.90;;;4.80;99.90;;;;;;5115210;28;20466;-68
2023/12/08 05:14:02;;;;;;;9.30;8.10;;;4.90;99.90;;;;;;5115339;28;20468;-71
2023/12/08 05:16:28;;;;;;;7.90;6.83;;;4.70;99.90;;;;;;5096824;28;20489;-70
2023/12/08 05:18:54;;;;;;;7.20;6.47;;;4.80;99.90;;;;;;5115023;28;20522;-68
2023/12/08 05:21:19;;;;;;;7.47;6.67;;;4.80;99.90;;;;;;5132971;27;20462;-71
2023/12/08 05:23:45;;;;;;;8.13;7.33;;;4.90;99.90;;;;;;5135550;27;20171;-71
2023/12/08 05:26:11;;;;;;;6.87;6.27;;;5.10;99.90;;;;;;5135728;27;20172;-68
2023/12/08 05:28:36;;;;;;;7.97;7.03;;;5.20;99.90;;;;;;5135620;27;20168;-70
2023/12/08 05:31:04;;;;;;;10.80;6.90;;;5.30;99.90;;;;;;5114693;27;20263;-70
2023/12/08 05:33:29;;;;;;;9.23;6.00;;;5.20;99.90;;;;;;5114897;27;20203;-70
2023/12/08 05:35:55;;;;;;;7.87;6.47;;;5.20;99.90;;;;;;5114582;28;20402;-68
2023/12/08 05:38:21;;;;;;;9.20;7.03;;;5.30;99.90;;;;;;5114459;27;20165;-71
2023/12/08 05:40:46;;;;;;;8.53;7.40;;;5.20;99.90;;;;;;5127693;27;20176;-69
2023/12/08 05:43:12;;;;;;;12.03;9.30;;;4.90;99.90;;;;;;5135011;27;20204;-71
2023/12/08 05:45:38;;;;;;;9.13;8.23;;;4.80;99.90;;;;;;5134906;27;20168;-68
2023/12/08 05:48:04;;;;;;;11.90;9.40;;;4.60;99.90;;;;;;5134951;27;20172;-70
2023/12/08 05:50:29;;;;;;;10.70;8.87;;;4.50;99.90;;;;;;5124365;27;20307;-68
2023/12/08 05:52:55;;;;;;;10.80;9.50;;;4.40;99.90;;;;;;5114063;28;20406;-68
2023/12/08 05:55:21;;;;;;;10.93;9.57;;;4.30;99.90;;;;;;5116677;27;20218;-68
2023/12/08 05:57:46;;;;;;;13.27;10.60;;;4.20;99.90;;;;;;5114521;28;20172;-69
2023/12/08 06:00:12;;;;;;;13.17;10.57;;;4.10;99.90;;;;;;5121727;27;20209;-69
2023/12/08 06:02:38;;;;;;;13.03;11.40;;;4.00;99.90;;;;;;5134964;27;20248;-69
2023/12/08 06:05:04;;;;;;;12.80;11.50;;;4.00;99.90;;;;;;5134752;27;20447;-69
2023/12/08 06:07:29;;;;;;;13.30;11.60;;;3.90;99.90;;;;;;5134415;27;20239;-69
2023/12/08 06:09:55;;;;;;;14.40;11.90;;;4.00;99.90;;;;;;5129214;27;20192;-69
2023/12/08 06:12:21;;;;;;;14.57;11.80;;;4.00;99.90;;;;;;5114464;28;20179;-69
2023/12/08 06:14:46;;;;;;;13.27;10.63;;;4.10;99.90;;;;;;5113800;28;20223;-69
2023/12/08 06:17:12;;;;;;;13.43;11.07;;;4.00;99.90;;;;;;5113904;28;20161;-68
2023/12/08 06:19:38;;;;;;;15.20;11.10;;;3.90;99.90;;;;;;5116419;27;20193;-69
2023/12/08 06:22:03;;;;;;;13.30;11.53;;;4.00;99.90;;;;;;5135023;27;20164;-70
2023/12/08 06:24:29;;;;;;;16.87;11.67;;;3.80;99.90;;;;;;5134406;27;20397;-69
2023/12/08 06:26:54;;;;;;;12.97;11.30;;;3.80;99.90;;;;;;5134508;27;20176;-68
2023/12/08 06:29:20;;;;;;;13.57;11.50;;;3.90;99.90;;;;;;5132774;27;20231;-71
2023/12/08 06:31:46;;;;;;;13.33;10.70;;;3.90;99.90;;;;;;5133543;27;20207;-70
2023/12/08 06:34:12;;;;;;;14.93;12.20;;;4.00;99.90;;;;;;5134092;27;20199;-70
2023/12/08 06:36:48;;;;;;;16.57;11.67;;;4.00;99.90;;;;;;5134264;27;20630;-69
2023/12/08 06:39:15;;;;;;;12.40;10.50;;;4.00;99.90;;;;;;5130106;27;20852;-69
2023/12/08 06:41:41;;;;;;;15.00;11.30;;;3.80;99.90;;;;;;5114595;27;20927;-69
2023/12/08 06:44:07;;;;;;;13.23;11.93;;;4.00;99.90;;;;;;5133950;27;20406;-69
2023/12/08 06:46:32;;;;;;;12.67;10.67;;;4.20;99.90;;;;;;5133843;27;20409;-69
2023/12/08 06:48:58;;;;;;;14.70;11.90;;;4.30;99.90;;;;;;5133626;27;20268;-69
2023/12/08 06:51:23;;;;;;;11.67;10.47;;;4.10;99.90;;;;;;5116678;27;20185;-70
2023/12/08 06:53:49;;;;;;;15.40;11.03;;;4.30;99.90;;;;;;5113249;28;20206;-70
2023/12/08 06:56:15;;;;;;;15.13;11.80;;;4.30;99.90;;;;;;5113194;28;20168;-70
2023/12/08 06:58:41;;;;;;;12.87;11.50;;;4.20;99.90;;;;;;5115684;28;20192;-70
2023/12/08 07:01:06;;;;;;;11.60;10.40;;;4.20;99.90;;;;;;5127671;28;20165;-70
2023/12/08 07:03:32;;;;;;;14.10;12.03;;;4.40;99.90;;;;;;5134081;27;20251;-70
2023/12/08 07:05:58;;;;;;;13.20;10.47;;;4.50;99.90;;;;;;5137530;27;20179;-70
2023/12/08 07:08:23;;;;;;;14.10;11.70;;;4.60;99.90;;;;;;5138128;27;20256;-70
2023/12/08 07:10:49;;;;;;;18.63;11.43;;;4.60;99.90;;;;;;5126092;27;20168;-70
2023/12/08 07:13:14;;;;;;;11.77;9.90;;;4.70;99.90;;;;;;5117327;28;20200;-69
2023/12/08 07:15:40;;;;;;;10.70;9.70;;;4.80;99.90;;;;;;5117534;28;20173;-70
2023/12/08 07:18:05;;;;;;;12.13;10.77;;;4.80;99.90;;;;;;5117615;28;20255;-70
2023/12/08 07:20:31;;;;;;;13.70;11.20;;;4.70;99.90;;;;;;5126424;27;20192;-70
2023/12/08 07:22:56;;;;;;;14.40;11.47;;;4.70;99.90;;;;;;5137691;27;20223;-70
2023/12/08 07:25:22;;;;;;;11.63;10.30;;;4.60;99.90;;;;;;5137696;27;20538;-70
2023/12/08 07:27:48;;;;;;;10.03;8.50;;;4.70;99.90;;;;;;5138305;27;20227;-70
2023/12/08 07:30:13;;;;;;;11.07;9.63;;;4.90;99.90;;;;;;5130807;27;20670;-70
2023/12/08 07:32:39;;;;;;;13.13;9.53;;;5.00;99.90;;;;;;5117493;28;20519;-70
2023/12/08 07:35:06;;;;;;;9.20;8.00;;;5.20;99.90;;;;;;5116878;28;20569;-70
2023/12/08 07:37:31;;;;;;;7.47;6.67;;;5.20;99.90;;;;;;5116814;28;20169;-70
2023/12/08 07:39:57;;;;;;;8.60;7.77;;;5.30;99.90;;;;;;5102440;27;20428;-70
2023/12/08 07:42:23;;;;;;;8.70;7.40;;;5.40;99.90;;;;;;5137191;27;20251;-69
2023/12/08 07:44:48;;;;;;;9.33;8.37;;;5.30;99.90;;;;;;5137530;27;20179;-70
2023/12/08 07:47:14;;;;;;;8.80;8.00;;;5.40;99.90;;;;;;5137413;27;20164;-70
2023/12/08 07:49:40;;;;;;;12.40;8.63;;;5.40;99.90;;;;;;5124821;27;20193;-71
2023/12/08 07:52:05;;;;;;;8.10;7.30;;;5.50;99.90;;;;;;5107482;27;20179;-71
2023/12/08 07:54:32;;;;;;;9.50;7.57;;;5.60;99.90;;;;;;5087225;28;20817;-72
2023/12/08 07:56:58;;;;;;;8.20;7.40;;;5.60;99.90;;;;;;5086058;28;20172;-70
2023/12/08 07:59:24;;;;;;;7.33;6.63;;;5.60;99.90;;;;;;5102112;28;20444;-71
2023/12/08 08:01:50;;;;;;;10.10;5.80;;;5.70;99.90;;;;;;5108561;27;20398;-72
2023/12/08 08:04:16;;;;;;;6.80;6.10;;;5.80;99.90;;;;;;5105480;28;20447;-71
2023/12/08 08:06:42;;;;;;;7.00;6.30;;;5.80;99.90;;;;;;5106701;28;20407;-71
2023/12/08 08:09:07;;;;;;;9.37;8.37;;;5.80;99.90;;;;;;5103961;28;20190;-71
2023/12/08 08:11:33;;;;;;;8.30;7.50;;;5.80;99.90;;;;;;5130254;27;20181;-72
2023/12/08 08:13:58;;;;;;;8.27;7.20;;;5.80;99.90;;;;;;5136713;27;20197;-72
2023/12/08 08:16:24;;;;;;;8.00;7.20;;;5.90;99.90;;;;;;5136754;27;20219;-72
2023/12/08 08:18:49;;;;;;;7.83;7.03;;;5.90;99.90;;;;;;5109126;27;20193;-73
2023/12/08 08:21:15;;;;;;;7.00;6.30;;;6.10;99.90;;;;;;5108497;27;20176;-73
2023/12/08 08:23:41;;;;;;;6.33;5.73;;;6.10;99.90;;;;;;5104652;28;20180;-70
2023/12/08 08:26:07;;;;;;;7.87;7.07;;;6.20;99.90;;;;;;5106535;28;20172;-73
2023/12/08 08:28:32;;;;;;;8.17;6.90;;;6.30;99.90;;;;;;5105039;28;20431;-72
2023/12/08 08:30:58;;;;;;;7.80;6.00;;;6.40;99.90;;;;;;5107508;27;20171;-71
2023/12/08 08:33:23;;;;;;;8.33;7.30;;;6.50;99.90;;;;;;5107451;27;20613;-72
2023/12/08 08:35:49;;;;;;;7.07;5.73;;;6.60;99.90;;;;;;5107013;28;20159;-71
2023/12/08 08:38:15;;;;;;;6.10;5.20;;;6.80;99.90;;;;;;5105232;28;20184;-71
2023/12/08 08:40:40;;;;;;;5.80;5.27;;;6.90;99.90;;;;;;5108252;27;20665;-69
2023/12/08 08:43:06;;;;;;;7.17;6.47;;;7.10;99.90;;;;;;5105352;28;20178;-73
2023/12/08 08:45:32;;;;;;;5.20;4.70;;;7.10;99.90;;;;;;5115778;28;20175;-72
2023/12/08 08:47:58;;;;;;;7.63;6.53;;;7.20;99.90;;;;;;5115621;28;20212;-73
2023/12/08 08:50:23;;;;;;;7.67;6.30;;;7.20;99.90;;;;;;5122584;27;20456;-74
2023/12/08 08:52:49;;;;;;;7.10;6.03;;;7.10;99.90;;;;;;5136342;27;20259;-74
2023/12/08 08:55:15;;;;;;;12.50;7.83;;;7.10;99.90;;;;;;5112291;28;20662;-73
2023/12/08 08:57:40;;;;;;;9.00;7.73;;;7.10;99.90;;;;;;5105068;28;20428;-75
2023/12/08 09:00:11;;;;;;;7.50;6.70;;;7.20;99.90;;;;;;5107911;27;20197;-74
2023/12/08 09:02:37;;;;;;;8.03;6.70;;;7.20;99.90;;;;;;5104300;28;20673;-75
2023/12/08 09:05:04;;;;;;;10.13;7.63;;;7.20;99.90;;;;;;5104339;28;20399;-75
2023/12/08 09:07:29;;;;;;;8.80;6.90;;;7.20;99.90;;;;;;5107259;27;20638;-74
2023/12/08 09:09:55;;;;;;;11.33;7.87;;;7.40;99.90;;;;;;5109133;27;20432;-71
2023/12/08 09:12:20;;;;;;;11.07;8.87;;;7.50;99.90;;;;;;5104563;28;20246;-72
2023/12/08 09:14:46;;;;;;;9.50;7.77;;;7.50;99.90;;;;;;5105172;28;20187;-72
2023/12/08 09:17:11;;;;;;;10.73;9.00;;;7.40;99.90;;;;;;5103126;28;20199;-70
2023/12/08 09:19:37;;;;;;;9.60;8.60;;;7.40;99.90;;;;;;5104726;28;20194;-70
2023/12/08 09:22:05;;;;;;;9.30;7.77;;;7.30;99.90;;;;;;5107231;27;20170;-73
2023/12/08 09:24:30;;;;;;;10.60;7.60;;;7.30;99.90;;;;;;5101826;28;20992;-74
2023/12/08 09:26:56;;;;;;;9.57;8.20;;;7.30;99.90;;;;;;5105222;27;20494;-72
2023/12/08 09:29:22;;;;;;;8.73;7.63;;;7.30;99.90;;;;;;5103693;28;20281;-72
2023/12/08 09:31:48;;;;;;;8.03;7.20;;;7.30;99.90;;;;;;5105154;28;20172;-71
2023/12/08 09:34:14;;;;;;;7.63;6.93;;;7.30;99.90;;;;;;5103016;28;20703;-71
2023/12/08 09:36:40;;;;;;;8.40;7.17;;;7.20;99.90;;;;;;5108450;27;20437;-72
2023/12/08 09:39:05;;;;;;;6.93;6.30;;;7.30;99.90;;;;;;5104538;28;20179;-73
2023/12/08 09:41:31;;;;;;;10.27;7.33;;;7.40;99.90;;;;;;5084408;28;20402;-73
2023/12/08 09:44:04;;;;;;;8.10;7.30;;;7.40;99.90;;;;;;5104496;28;20171;-74
2023/12/08 09:46:31;;;;;;;8.17;6.90;;;7.40;99.90;;;;;;5108769;27;20400;-73
2023/12/08 09:49:00;;;;;;;9.43;7.90;;;7.30;99.90;;;;;;5101978;28;20437;-74
2023/12/08 09:51:28;;;;;;;13.33;8.17;;;7.40;99.90;;;;;;5098437;28;20409;-73
2023/12/08 09:53:53;;;;;;;7.63;6.83;;;7.50;99.90;;;;;;5102740;28;20478;-73
2023/12/08 09:56:21;;;;;;;7.70;6.90;;;7.60;99.90;;;;;;5104641;28;20429;-73
2023/12/08 09:58:47;;;;;;;9.73;7.93;;;7.70;99.90;;;;;;5103079;28;20756;-73
2023/12/08 10:01:13;;;;;;;8.57;7.10;;;7.70;99.90;;;;;;5103893;28;20404;-71
2023/12/08 10:03:43;;;;;;;10.47;8.70;;;7.70;99.90;;;;;;5093333;28;20487;-72
2023/12/08 10:06:10;;;;;;;7.83;7.03;;;7.70;99.90;;;;;;5098886;28;20429;-73
2023/12/08 10:08:36;;;;;;;8.77;7.17;;;7.50;99.90;;;;;;5093260;28;20403;-71
2023/12/08 10:11:03;;;;;;;6.47;5.83;;;7.40;99.90;;;;;;5099004;28;20520;-75
2023/12/08 10:13:28;;;;;;;8.00;7.20;;;7.40;99.90;;;;;;5102677;28;20444;-76
2023/12/08 10:15:55;;;;;;;10.00;7.70;;;7.50;99.90;;;;;;5102152;28;20501;-75
2023/12/08 10:18:25;;;;;;;8.10;7.30;;;7.60;99.90;;;;;;5106778;28;20284;-75
2023/12/08 10:20:52;;;;;;;7.60;6.53;;;7.70;99.90;;;;;;5110972;28;20405;-73
2023/12/08 10:23:21;;;;;;;8.47;7.30;;;7.80;99.90;;;;;;5094930;28;20420;-72
2023/12/08 10:25:47;;;;;;;7.33;6.37;;;7.70;99.90;;;;;;5102612;28;20859;-72
2023/12/08 10:28:13;;;;;;;7.13;5.80;;;7.50;99.90;;;;;;5074790;28;20445;-72
2023/12/08 10:30:46;;;;;;;6.50;5.90;;;7.70;99.90;;;;;;5091909;28;20466;-73
2023/12/08 10:33:19;;;;;;;8.07;6.20;;;7.60;99.90;;;;;;5093181;28;20534;-71
2023/12/08 10:35:46;;;;;;;7.00;6.23;;;7.80;99.90;;;;;;5093251;28;20407;-70
2023/12/08 10:38:11;;;;;;;7.83;7.03;;;7.80;99.90;;;;;;5093103;28;20921;-71
2023/12/08 10:40:49;;;;;;;6.93;6.23;;;7.80;99.90;;;;;;5093313;28;20508;-73
2023/12/08 10:43:23;;;;;;;6.70;5.50;;;7.90;99.90;;;;;;5093453;28;20164;-72
2023/12/08 10:45:52;;;;;;;6.90;6.03;;;8.00;99.90;;;;;;5092988;28;20414;-74
2023/12/08 10:48:22;;;;;;;8.77;7.37;;;8.00;99.90;;;;;;5091261;28;20413;-73
2023/12/08 10:50:49;;;;;;;8.00;6.80;;;8.00;99.90;;;;;;5093733;28;20809;-72
2023/12/08 10:53:18;;;;;;;7.90;7.00;;;8.30;99.90;;;;;;5092900;28;20447;-73
2023/12/08 10:56:00;;;;;;;7.17;6.43;;;8.40;99.90;;;;;;5092877;28;20428;-75
2023/12/08 10:58:28;;;;;;;7.33;6.07;;;8.50;99.90;;;;;;5092917;28;20410;-72
2023/12/08 11:00:55;;;;;;;7.27;5.90;;;8.40;99.90;;;;;;5133907;28;20417;-73
2023/12/08 11:03:21;;;;;;;7.10;6.40;;;8.20;99.90;;;;;;5133804;28;20916;-73
2023/12/08 11:05:59;;;;;;;6.70;5.80;;;8.30;99.90;;;;;;5124676;28;20413;-73
2023/12/08 11:08:27;;;;;;;6.57;5.50;;;8.20;99.90;;;;;;5095433;28;20403;-73
2023/12/08 11:10:56;;;;;;;6.03;5.43;;;8.30;99.90;;;;;;5115174;28;20410;-73
2023/12/08 11:13:25;;;;;;;6.53;5.83;;;8.40;99.90;;;;;;5113183;28;20830;-72
2023/12/08 11:16:01;;;;;;;6.37;5.73;;;8.50;99.90;;;;;;5122625;28;20534;-73
2023/12/08 11:18:30;;;;;;;7.23;5.37;;;8.40;99.90;;;;;;5133614;27;20391;-73
2023/12/08 11:20:56;;;;;;;5.30;4.43;;;8.50;99.90;;;;;;5133573;28;20906;-73
2023/12/08 11:23:22;;;;;;;5.90;5.23;;;8.50;99.90;;;;;;5133821;28;20413;-72
2023/12/08 11:25:57;;;;;;;5.00;4.47;;;8.50;99.90;;;;;;5124850;28;20399;-73
2023/12/08 11:28:57;;;;;;;4.90;4.27;;;8.60;99.90;;;;;;5113315;28;20411;-73
2023/12/08 11:31:36;;;;;;;6.30;4.47;;;8.70;99.90;;;;;;5059132;28;20819;-73
2023/12/08 11:34:11;;;;;;;5.40;4.63;;;8.70;99.90;;;;;;5112943;28;20591;-74
2023/12/08 11:36:45;;;;;;;4.20;3.30;;;8.90;99.90;;;;;;5110156;28;20908;-73
2023/12/08 11:39:37;;;;;;;4.50;3.80;;;8.80;99.90;;;;;;5133617;27;20457;-72
2023/12/08 11:42:29;;;;;;;3.63;3.27;;;9.00;99.90;;;;;;5124158;28;20406;-73
2023/12/08 11:44:56;;;;;;;3.60;3.03;;;9.20;99.90;;;;;;5128410;28;20415;-73
2023/12/08 11:47:25;;;;;;;4.20;3.57;;;9.20;99.90;;;;;;5112775;28;20403;-72
2023/12/08 11:49:53;;;;;;;6.23;5.63;;;9.30;99.90;;;;;;5113071;28;20424;-73
2023/12/08 11:52:28;;;;;;;4.00;3.60;;;9.40;99.90;;;;;;5098226;28;20421;-73
2023/12/08 11:55:01;;;;;;;4.93;3.90;;;9.30;99.90;;;;;;5117869;28;20434;-74
2023/12/08 11:57:29;;;;;;;3.70;3.33;;;9.30;99.90;;;;;;5137139;27;20402;-73
2023/12/08 11:59:55;;;;;;;5.63;4.77;;;9.40;99.90;;;;;;5136912;27;21091;-73
2023/12/08 12:02:22;;;;;;;6.47;5.27;;;9.30;99.90;;;;;;5137020;27;20893;-73
2023/12/08 12:04:49;;;;;;;4.03;3.63;;;9.20;99.90;;;;;;5137082;27;20412;-73
2023/12/08 12:07:23;;;;;;;4.07;3.37;;;9.20;99.90;;;;;;5116470;28;20787;-73
2023/12/08 12:09:51;;;;;;;4.33;3.60;;;9.30;99.90;;;;;;5116991;28;20431;-73
2023/12/08 12:12:29;;;;;;;4.03;3.63;;;9.30;99.90;;;;;;5116387;28;20466;-73
2023/12/08 12:14:56;;;;;;;4.37;3.97;;;9.20;99.90;;;;;;5116757;28;20530;-73
2023/12/08 12:17:23;;;;;;;4.43;4.03;;;9.40;99.90;;;;;;5136688;27;20402;-73
2023/12/08 12:19:50;;;;;;;3.87;3.57;;;9.50;99.90;;;;;;5136639;27;20477;-73
2023/12/08 12:22:16;;;;;;;5.63;3.93;;;9.60;99.90;;;;;;5136659;27;20463;-73
2023/12/08 12:24:41;;;;;;;4.30;4.00;;;9.60;99.90;;;;;;5136888;27;20536;-73
2023/12/08 12:27:07;;;;;;;6.03;3.73;;;9.90;99.90;;;;;;5117332;27;20188;-72
2023/12/08 12:29:35;;;;;;;4.37;3.97;;;10.10;99.90;;;;;;5116379;28;20272;-73
2023/12/08 12:32:03;;;;;;;3.87;3.40;;;10.20;99.90;;;;;;5127728;27;20225;-73
2023/12/08 12:34:29;;;;;;;4.23;3.17;;;10.30;99.90;;;;;;5136318;27;20863;-74
2023/12/08 12:36:54;;;;;;;4.40;3.13;;;10.50;99.90;;;;;;5098650;27;20408;-74
2023/12/08 12:39:20;;;;;;;3.80;3.40;;;10.70;99.90;;;;;;5094834;28;20189;-74
2023/12/08 12:41:46;;;;;;;4.87;3.43;;;10.70;99.90;;;;;;5095404;28;20249;-73
2023/12/08 12:44:11;;;;;;;6.80;4.13;;;10.40;99.90;;;;;;5101476;28;20179;-73